Time;durP1;ratioP1;P1;durP2;ratioP2;P2;SDS_P1;SDS_P2;PMS_P1;PMS_P2;Temp;Humidity;BMP_temperature;BMP_pressure;BME280_temperature;BME280_humidity;BME280_pressure;Samples;Min_cycle;Max_cycle;Signal;HPM_P1;HPM_P2
2021/09/11 00:01:14;;;;;;;6.10;4.97;;;22.60;85.70;;;;;;4994448;28;20022;-72
2021/09/11 00:03:41;;;;;;;6.07;5.22;;;22.70;85.40;;;;;;4993719;28;20026;-72
2021/09/11 00:06:08;;;;;;;4.75;4.35;;;22.90;83.10;;;;;;4992351;28;20058;-72
2021/09/11 00:08:36;;;;;;;4.45;4.15;;;23.10;82.10;;;;;;4993982;28;20061;-71
2021/09/11 00:11:03;;;;;;;4.72;4.32;;;23.30;81.50;;;;;;4993825;28;20420;-72
2021/09/11 00:13:31;;;;;;;4.20;3.80;;;23.30;80.50;;;;;;4993740;28;20098;-73
2021/09/11 00:15:58;;;;;;;4.18;3.80;;;23.60;77.20;;;;;;4992574;28;20038;-72
2021/09/11 00:18:25;;;;;;;4.13;3.50;;;23.80;76.40;;;;;;4992979;28;20416;-72
2021/09/11 00:20:52;;;;;;;4.18;3.78;;;23.90;74.30;;;;;;4992362;28;20430;-72
2021/09/11 00:23:20;;;;;;;4.22;3.80;;;23.90;72.30;;;;;;4993755;28;20018;-71
2021/09/11 00:25:47;;;;;;;3.35;3.08;;;24.00;74.00;;;;;;4993783;28;20474;-74
2021/09/11 00:28:14;;;;;;;3.95;3.60;;;24.20;72.70;;;;;;4992285;28;20030;-72
2021/09/11 00:30:42;;;;;;;4.53;3.63;;;24.40;71.80;;;;;;4993579;28;20117;-72
2021/09/11 00:33:09;;;;;;;3.75;3.45;;;24.40;70.00;;;;;;4993688;28;20033;-74
2021/09/11 00:35:36;;;;;;;3.25;3.00;;;24.60;67.60;;;;;;4993727;28;20050;-72
2021/09/11 00:38:04;;;;;;;3.75;3.30;;;24.60;67.60;;;;;;4993909;28;20023;-72
2021/09/11 00:40:31;;;;;;;3.22;3.03;;;24.70;69.70;;;;;;4993799;28;20539;-72
2021/09/11 00:42:58;;;;;;;3.50;3.15;;;24.90;67.60;;;;;;4993798;28;20019;-72
2021/09/11 00:45:26;;;;;;;4.57;3.17;;;25.00;65.50;;;;;;4993790;28;20341;-72
2021/09/11 00:47:53;;;;;;;3.20;2.90;;;25.10;64.70;;;;;;4993495;28;20452;-72
2021/09/11 00:50:21;;;;;;;3.20;2.90;;;25.20;63.90;;;;;;4992443;28;20541;-72
2021/09/11 00:52:50;;;;;;;3.30;3.00;;;25.20;62.60;;;;;;4993663;28;20046;-72
2021/09/11 00:55:18;;;;;;;3.10;2.90;;;25.40;62.00;;;;;;4993595;28;20034;-72
2021/09/11 00:57:51;;;;;;;3.42;2.97;;;25.40;63.50;;;;;;4993650;28;20022;-72
2021/09/11 01:00:18;;;;;;;3.28;3.05;;;25.60;62.10;;;;;;4993558;28;20379;-72
2021/09/11 01:02:46;;;;;;;3.38;3.08;;;25.70;61.70;;;;;;4993786;28;20026;-72
2021/09/11 01:05:13;;;;;;;2.90;2.70;;;25.70;61.20;;;;;;4993441;28;20019;-72
2021/09/11 01:07:45;;;;;;;3.20;2.90;;;25.80;60.80;;;;;;4993516;28;20050;-72
2021/09/11 01:10:13;;;;;;;3.03;2.72;;;26.00;62.00;;;;;;4993514;28;20034;-72
2021/09/11 01:12:41;;;;;;;3.00;2.70;;;26.10;59.70;;;;;;4992074;28;20046;-72
2021/09/11 01:15:12;;;;;;;2.92;2.70;;;26.10;59.50;;;;;;4993666;28;20633;-72
2021/09/11 01:17:43;;;;;;;4.22;2.78;;;26.20;60.10;;;;;;4992042;28;20348;-73
2021/09/11 01:20:11;;;;;;;2.90;2.63;;;26.40;60.90;;;;;;4993367;28;20104;-72
2021/09/11 01:22:39;;;;;;;3.42;3.03;;;26.50;60.50;;;;;;4992167;28;20023;-73
2021/09/11 01:25:09;;;;;;;3.00;2.80;;;26.50;59.90;;;;;;4997119;28;20414;-73
2021/09/11 01:27:37;;;;;;;2.90;2.70;;;26.60;59.90;;;;;;4996955;28;20475;-73
2021/09/11 01:30:08;;;;;;;2.70;2.60;;;26.70;58.30;;;;;;4995986;28;20031;-73
2021/09/11 01:32:36;;;;;;;3.20;3.00;;;26.90;57.10;;;;;;4995682;28;20455;-72
2021/09/11 01:35:05;;;;;;;3.10;2.90;;;27.00;58.00;;;;;;4997195;28;20030;-71
2021/09/11 01:37:32;;;;;;;3.22;3.03;;;27.10;58.80;;;;;;4997144;28;20048;-73
2021/09/11 01:39:59;;;;;;;3.30;3.10;;;27.10;57.20;;;;;;4996929;28;20058;-71
2021/09/11 01:42:28;;;;;;;3.10;2.67;;;27.30;57.90;;;;;;4995417;28;20030;-73
2021/09/11 01:44:59;;;;;;;3.30;3.10;;;27.30;58.60;;;;;;4996849;28;20080;-74
2021/09/11 01:47:26;;;;;;;3.25;2.95;;;27.40;56.50;;;;;;4996753;28;20080;-74
2021/09/11 01:49:54;;;;;;;3.00;2.80;;;27.30;57.80;;;;;;4996583;28;20076;-74
2021/09/11 01:52:22;;;;;;;3.28;3.08;;;27.20;57.80;;;;;;4996375;28;20088;-74
2021/09/11 01:54:50;;;;;;;3.17;2.90;;;27.30;59.10;;;;;;4995283;28;20148;-72
2021/09/11 01:57:17;;;;;;;3.50;3.28;;;27.50;58.90;;;;;;4996591;28;20101;-72
2021/09/11 01:59:45;;;;;;;3.80;3.10;;;27.60;60.20;;;;;;4995324;28;20026;-73
2021/09/11 02:02:13;;;;;;;3.00;2.70;;;27.60;58.60;;;;;;4995194;28;20054;-72
2021/09/11 02:04:40;;;;;;;3.13;2.92;;;27.60;58.70;;;;;;4996309;28;20129;-72
2021/09/11 02:07:08;;;;;;;3.10;2.90;;;27.40;58.40;;;;;;4996412;28;20487;-72
2021/09/11 02:09:37;;;;;;;3.17;2.88;;;27.60;59.30;;;;;;4994994;28;20058;-71
2021/09/11 02:12:07;;;;;;;3.90;3.50;;;27.70;59.10;;;;;;4996076;28;20105;-74
2021/09/11 02:14:35;;;;;;;3.60;2.95;;;27.90;59.40;;;;;;4996358;28;20368;-71
2021/09/11 02:17:03;;;;;;;3.38;3.17;;;28.10;59.70;;;;;;4996318;28;20019;-74
2021/09/11 02:19:32;;;;;;;3.10;2.78;;;28.20;57.10;;;;;;4996215;28;20403;-72
2021/09/11 02:22:01;;;;;;;3.20;3.00;;;28.40;57.50;;;;;;4995963;28;20034;-72
2021/09/11 02:24:29;;;;;;;3.13;2.92;;;28.50;56.70;;;;;;4996057;28;20022;-72
2021/09/11 02:26:58;;;;;;;3.38;3.17;;;28.40;56.00;;;;;;4994568;28;20058;-72
2021/09/11 02:29:25;;;;;;;3.60;3.30;;;28.30;54.80;;;;;;4995795;28;20026;-72
2021/09/11 02:31:52;;;;;;;3.22;3.00;;;28.30;57.10;;;;;;4994374;28;20395;-72
2021/09/11 02:34:20;;;;;;;3.40;3.20;;;28.50;57.10;;;;;;4995592;28;20052;-73
2021/09/11 02:36:47;;;;;;;3.47;3.20;;;28.80;58.70;;;;;;4994199;28;20045;-73
2021/09/11 02:39:15;;;;;;;3.30;3.10;;;28.90;56.80;;;;;;4994677;28;20427;-73
2021/09/11 02:41:42;;;;;;;3.10;3.00;;;28.90;55.30;;;;;;4995657;28;20026;-72
2021/09/11 02:44:09;;;;;;;3.05;2.80;;;28.90;55.60;;;;;;4995725;28;20026;-72
2021/09/11 02:46:37;;;;;;;3.05;2.95;;;28.90;55.90;;;;;;4995597;28;20030;-72
2021/09/11 02:49:04;;;;;;;3.40;3.10;;;28.80;53.40;;;;;;4995801;28;20494;-72
2021/09/11 02:51:32;;;;;;;3.25;3.05;;;29.00;55.00;;;;;;4995673;28;20375;-72
2021/09/11 02:54:00;;;;;;;3.28;3.00;;;29.00;53.50;;;;;;4995434;28;20037;-73
2021/09/11 02:56:28;;;;;;;5.22;3.75;;;28.90;54.00;;;;;;4994872;28;20396;-73
2021/09/11 02:58:55;;;;;;;3.00;2.80;;;29.20;54.80;;;;;;4994020;28;20117;-72
2021/09/11 03:01:23;;;;;;;3.03;2.70;;;29.10;54.10;;;;;;4993910;28;20177;-71
2021/09/11 03:03:50;;;;;;;3.20;2.97;;;28.90;53.10;;;;;;4993863;28;20030;-72
2021/09/11 03:06:18;;;;;;;3.88;3.10;;;29.00;53.30;;;;;;4995175;28;20084;-71
2021/09/11 03:08:45;;;;;;;3.00;2.80;;;28.90;52.70;;;;;;4994974;28;20491;-72
2021/09/11 03:11:12;;;;;;;3.35;3.00;;;28.90;54.30;;;;;;4995150;28;20026;-72
2021/09/11 03:13:42;;;;;;;3.03;2.72;;;29.00;52.70;;;;;;4995268;28;20022;-72
2021/09/11 03:16:10;;;;;;;3.15;2.90;;;29.00;52.40;;;;;;4995070;28;20022;-72
2021/09/11 03:18:38;;;;;;;3.08;2.80;;;29.20;52.50;;;;;;4995043;28;20052;-72
2021/09/11 03:21:05;;;;;;;3.35;3.08;;;29.00;52.20;;;;;;4995026;28;20058;-72
2021/09/11 03:23:33;;;;;;;2.85;2.75;;;29.10;54.40;;;;;;4995029;28;20029;-73
2021/09/11 03:26:00;;;;;;;2.97;2.80;;;29.10;51.60;;;;;;4995054;28;20041;-73
2021/09/11 03:28:28;;;;;;;2.70;2.60;;;29.00;52.20;;;;;;4993864;28;20034;-71
2021/09/11 03:30:56;;;;;;;2.70;2.50;;;29.00;51.90;;;;;;4994866;28;20022;-72
2021/09/11 03:33:23;;;;;;;2.60;2.50;;;29.10;52.60;;;;;;4994880;28;20482;-71
2021/09/11 03:35:50;;;;;;;2.42;2.33;;;29.30;52.60;;;;;;4993358;28;20023;-71
2021/09/11 03:38:18;;;;;;;3.05;2.85;;;29.20;51.30;;;;;;4994586;28;20033;-69
2021/09/11 03:40:45;;;;;;;3.00;2.80;;;29.20;51.60;;;;;;4993342;28;20058;-71
2021/09/11 03:43:12;;;;;;;2.67;2.45;;;29.20;51.10;;;;;;4994747;28;20094;-73
2021/09/11 03:45:40;;;;;;;2.80;2.60;;;29.20;51.00;;;;;;4993283;28;20116;-72
2021/09/11 03:48:07;;;;;;;2.60;2.40;;;29.30;52.30;;;;;;4993575;28;20030;-71
2021/09/11 03:50:35;;;;;;;2.58;2.47;;;29.10;51.50;;;;;;4994185;28;20023;-72
2021/09/11 03:53:03;;;;;;;3.17;2.35;;;29.00;50.90;;;;;;4994024;28;20030;-71
2021/09/11 03:55:30;;;;;;;2.45;2.35;;;29.10;52.90;;;;;;4994438;28;20026;-72
2021/09/11 03:57:57;;;;;;;2.80;2.60;;;29.20;51.70;;;;;;4994437;28;20022;-71
2021/09/11 04:00:25;;;;;;;2.40;2.20;;;29.40;52.60;;;;;;4994174;28;20475;-72
2021/09/11 04:02:52;;;;;;;2.40;2.30;;;29.50;50.30;;;;;;4994229;28;20025;-72
2021/09/11 04:05:20;;;;;;;2.50;2.40;;;29.50;50.30;;;;;;4994140;28;20022;-72
2021/09/11 04:07:47;;;;;;;2.30;2.20;;;29.50;50.90;;;;;;4994251;28;20030;-72
2021/09/11 04:10:14;;;;;;;2.70;2.60;;;29.60;51.90;;;;;;4992776;28;20152;-70
2021/09/11 04:12:42;;;;;;;4.38;2.88;;;29.60;51.60;;;;;;4994088;28;20022;-71
2021/09/11 04:15:10;;;;;;;2.65;2.25;;;29.60;52.20;;;;;;4993941;28;20611;-70
2021/09/11 04:17:37;;;;;;;2.78;2.58;;;29.50;51.80;;;;;;4992760;28;20026;-70
2021/09/11 04:20:05;;;;;;;2.90;2.70;;;29.60;52.20;;;;;;4993775;28;20050;-70
2021/09/11 04:22:32;;;;;;;2.65;2.50;;;29.60;52.40;;;;;;4994029;28;20053;-71
2021/09/11 04:25:00;;;;;;;2.90;2.58;;;29.50;50.70;;;;;;4992460;28;20041;-70
2021/09/11 04:27:27;;;;;;;2.83;2.63;;;29.50;50.40;;;;;;4993688;28;20034;-70
2021/09/11 04:29:54;;;;;;;2.65;2.55;;;29.70;52.40;;;;;;4994154;28;20041;-72
2021/09/11 04:32:22;;;;;;;2.40;2.30;;;29.80;50.80;;;;;;4993837;28;20080;-70
2021/09/11 04:34:49;;;;;;;2.90;2.70;;;29.50;51.50;;;;;;4993729;28;20329;-71
2021/09/11 04:37:16;;;;;;;3.92;2.80;;;29.40;50.70;;;;;;4992631;28;20018;-70
2021/09/11 04:39:44;;;;;;;2.97;2.70;;;29.40;51.70;;;;;;4992351;28;20023;-71
2021/09/11 04:42:11;;;;;;;3.22;2.75;;;29.50;52.10;;;;;;4993831;28;20026;-70
2021/09/11 04:44:38;;;;;;;3.97;3.10;;;29.50;51.90;;;;;;4993658;28;20503;-69
2021/09/11 04:47:06;;;;;;;3.47;2.80;;;29.40;51.80;;;;;;4992321;28;20026;-70
2021/09/11 04:49:33;;;;;;;5.63;2.80;;;29.40;52.10;;;;;;4993819;28;20034;-69
2021/09/11 04:52:00;;;;;;;3.08;2.88;;;29.30;51.80;;;;;;4993556;28;20455;-72
2021/09/11 04:54:28;;;;;;;2.75;2.60;;;29.20;52.40;;;;;;4993735;28;20022;-71
2021/09/11 04:56:55;;;;;;;2.83;2.72;;;29.10;51.30;;;;;;4993823;28;20026;-72
2021/09/11 04:59:22;;;;;;;3.28;2.70;;;29.30;52.00;;;;;;4996596;28;20483;-72
2021/09/11 05:01:50;;;;;;;3.20;3.00;;;29.10;51.50;;;;;;4997635;28;20022;-71
2021/09/11 05:04:18;;;;;;;2.80;2.70;;;29.10;52.20;;;;;;4997477;28;20044;-71
2021/09/11 05:06:45;;;;;;;2.70;2.60;;;29.20;52.50;;;;;;4997584;28;20111;-72
2021/09/11 05:09:13;;;;;;;5.20;3.08;;;29.20;52.90;;;;;;4997295;28;20093;-71
2021/09/11 05:11:40;;;;;;;2.70;2.50;;;29.20;51.60;;;;;;4997500;28;20097;-72
2021/09/11 05:14:07;;;;;;;3.28;2.97;;;29.20;51.70;;;;;;4997373;28;20030;-72
2021/09/11 05:16:35;;;;;;;2.50;2.40;;;29.10;50.80;;;;;;4997244;28;20054;-72
2021/09/11 05:19:02;;;;;;;3.05;2.85;;;29.00;51.20;;;;;;4996093;28;20037;-72
2021/09/11 05:21:29;;;;;;;2.75;2.65;;;28.90;51.30;;;;;;4997325;28;20027;-71
2021/09/11 05:23:58;;;;;;;2.85;2.75;;;28.90;51.10;;;;;;4997377;28;20041;-72
2021/09/11 05:26:26;;;;;;;2.90;2.80;;;28.90;51.60;;;;;;4997554;28;20030;-72
2021/09/11 05:28:53;;;;;;;2.75;2.65;;;29.00;50.30;;;;;;4997006;28;20026;-71
2021/09/11 05:31:21;;;;;;;3.40;3.10;;;28.90;51.40;;;;;;4997165;28;20030;-72
2021/09/11 05:33:48;;;;;;;2.90;2.80;;;28.90;50.40;;;;;;4995513;28;20058;-72
2021/09/11 05:36:16;;;;;;;2.90;2.80;;;28.80;50.60;;;;;;4996602;28;20023;-72
2021/09/11 05:38:43;;;;;;;3.10;2.95;;;28.70;50.40;;;;;;4996572;28;20104;-72
2021/09/11 05:41:10;;;;;;;3.15;2.95;;;28.70;50.60;;;;;;4996913;28;20491;-72
2021/09/11 05:43:38;;;;;;;2.90;2.80;;;28.70;49.70;;;;;;4995838;28;20038;-73
2021/09/11 05:46:05;;;;;;;2.72;2.60;;;28.70;50.40;;;;;;4995696;28;20124;-72
2021/09/11 05:48:34;;;;;;;3.03;2.83;;;28.70;51.00;;;;;;4995717;28;20550;-72
2021/09/11 05:51:03;;;;;;;3.20;2.87;;;28.60;49.90;;;;;;4996831;28;20089;-72
2021/09/11 05:53:30;;;;;;;3.42;3.13;;;28.50;49.90;;;;;;4996792;28;20101;-72
2021/09/11 05:55:58;;;;;;;2.80;2.70;;;28.50;49.10;;;;;;4996651;28;20459;-72
2021/09/11 05:58:25;;;;;;;2.60;2.40;;;28.50;49.60;;;;;;4996788;28;20023;-71
2021/09/11 06:00:53;;;;;;;3.45;2.50;;;28.50;50.00;;;;;;4995297;28;20030;-71
2021/09/11 06:03:20;;;;;;;2.70;2.60;;;28.40;50.30;;;;;;4996506;28;20490;-72
2021/09/11 06:05:48;;;;;;;2.78;2.47;;;28.30;50.40;;;;;;4995266;28;20034;-72
2021/09/11 06:08:15;;;;;;;4.03;2.70;;;28.30;50.30;;;;;;4996449;28;20057;-72
2021/09/11 06:10:43;;;;;;;2.90;2.70;;;28.10;49.10;;;;;;4993328;28;20037;-71
2021/09/11 06:13:10;;;;;;;2.90;2.80;;;27.90;50.00;;;;;;4995166;28;20032;-71
2021/09/11 06:15:38;;;;;;;2.90;2.70;;;27.90;49.30;;;;;;4995238;28;20034;-71
2021/09/11 06:18:06;;;;;;;2.78;2.67;;;27.90;50.10;;;;;;4995016;28;20455;-72
2021/09/11 06:20:33;;;;;;;2.75;2.55;;;27.80;50.00;;;;;;4994882;28;20023;-72
2021/09/11 06:23:00;;;;;;;2.60;2.50;;;27.70;50.10;;;;;;4995947;28;20602;-71
2021/09/11 06:25:28;;;;;;;2.70;2.50;;;27.70;49.30;;;;;;4995843;28;20023;-74
2021/09/11 06:27:55;;;;;;;2.80;2.60;;;27.60;49.30;;;;;;4996072;28;20380;-72
2021/09/11 06:30:23;;;;;;;2.70;2.60;;;27.60;49.60;;;;;;4995946;28;20029;-72
2021/09/11 06:32:51;;;;;;;2.90;2.72;;;27.50;47.00;;;;;;4995827;28;20029;-71
2021/09/11 06:35:19;;;;;;;3.22;3.03;;;27.50;47.00;;;;;;4995696;28;20381;-73
2021/09/11 06:37:46;;;;;;;2.92;2.72;;;27.50;46.70;;;;;;4995628;28;20100;-73
2021/09/11 06:40:13;;;;;;;2.67;2.55;;;27.50;45.80;;;;;;4994388;28;20034;-73
2021/09/11 06:42:41;;;;;;;2.50;2.40;;;27.40;45.80;;;;;;4995638;28;20391;-72
2021/09/11 06:45:09;;;;;;;2.60;2.50;;;27.40;44.90;;;;;;4995676;28;20019;-72
2021/09/11 06:47:37;;;;;;;2.50;2.40;;;27.40;44.70;;;;;;4995505;28;20031;-73
2021/09/11 06:50:04;;;;;;;2.80;2.40;;;27.20;46.20;;;;;;4995608;28;20023;-73
2021/09/11 06:52:32;;;;;;;3.08;2.60;;;27.00;45.50;;;;;;4995472;28;20081;-73
2021/09/11 06:54:59;;;;;;;2.85;2.67;;;27.00;47.10;;;;;;4995387;28;20475;-73
2021/09/11 06:57:27;;;;;;;2.45;2.35;;;26.70;47.10;;;;;;4995245;28;20029;-73
2021/09/11 06:59:54;;;;;;;2.60;2.50;;;26.60;46.20;;;;;;4993969;28;20022;-72
2021/09/11 07:02:21;;;;;;;3.00;2.80;;;26.60;46.30;;;;;;4995695;28;20053;-71
2021/09/11 07:04:49;;;;;;;2.88;2.78;;;26.40;47.10;;;;;;4993734;28;20117;-71
2021/09/11 07:07:16;;;;;;;3.25;3.15;;;26.40;46.30;;;;;;4993807;28;20039;-71
2021/09/11 07:09:43;;;;;;;2.90;2.80;;;26.30;46.00;;;;;;4994743;28;20046;-71
2021/09/11 07:12:11;;;;;;;2.90;2.80;;;26.20;46.20;;;;;;4995181;28;20376;-71
2021/09/11 07:14:38;;;;;;;3.00;2.80;;;26.20;46.20;;;;;;4995056;28;20018;-71
2021/09/11 07:17:06;;;;;;;2.90;2.70;;;26.00;46.10;;;;;;4995078;28;20029;-72
2021/09/11 07:19:33;;;;;;;2.63;2.53;;;25.90;45.70;;;;;;4994957;28;20030;-72
2021/09/11 07:22:00;;;;;;;2.92;2.72;;;25.80;46.10;;;;;;4994860;28;20436;-73
2021/09/11 07:24:28;;;;;;;2.80;2.70;;;25.70;46.50;;;;;;4993367;28;20026;-73
2021/09/11 07:26:55;;;;;;;3.00;2.80;;;25.60;46.80;;;;;;4993688;28;20395;-71
2021/09/11 07:29:22;;;;;;;12.13;10.93;;;25.50;48.80;;;;;;4994862;28;20025;-72
2021/09/11 07:31:49;;;;;;;3.78;3.47;;;25.30;47.40;;;;;;4994807;28;20382;-72
2021/09/11 07:34:17;;;;;;;3.78;3.47;;;25.30;46.50;;;;;;4994864;28;20026;-72
2021/09/11 07:36:44;;;;;;;2.92;2.78;;;25.20;46.90;;;;;;4994582;28;20137;-74
2021/09/11 07:39:11;;;;;;;5.35;3.30;;;25.00;46.90;;;;;;4994726;28;20117;-72
2021/09/11 07:41:39;;;;;;;3.78;3.47;;;24.90;47.80;;;;;;4994597;28;20022;-73
2021/09/11 07:44:06;;;;;;;4.15;3.63;;;24.70;49.20;;;;;;4994650;28;20025;-73
2021/09/11 07:46:33;;;;;;;3.03;2.83;;;24.50;48.50;;;;;;4993010;28;20026;-73
2021/09/11 07:49:00;;;;;;;3.65;3.00;;;24.30;47.90;;;;;;4994638;28;20050;-73
2021/09/11 07:51:28;;;;;;;3.28;3.08;;;24.10;48.20;;;;;;4993086;28;20057;-72
2021/09/11 07:53:55;;;;;;;3.60;3.20;;;23.90;48.20;;;;;;4993102;28;20033;-72
2021/09/11 07:56:23;;;;;;;3.97;3.65;;;23.70;48.50;;;;;;4994549;28;20024;-72
2021/09/11 07:58:51;;;;;;;5.13;3.88;;;23.50;49.00;;;;;;4994580;28;20085;-72
2021/09/11 08:01:18;;;;;;;3.97;3.50;;;23.40;49.40;;;;;;4994205;28;20022;-73
2021/09/11 08:03:46;;;;;;;4.43;3.65;;;23.40;50.10;;;;;;4994188;28;20030;-72
2021/09/11 08:06:13;;;;;;;3.53;3.22;;;23.40;49.20;;;;;;4994169;28;20467;-73
2021/09/11 08:08:40;;;;;;;3.58;3.28;;;23.50;49.50;;;;;;4993759;28;20050;-73
2021/09/11 08:11:08;;;;;;;3.40;3.10;;;23.40;49.20;;;;;;4994066;28;20074;-73
2021/09/11 08:13:36;;;;;;;3.38;3.17;;;23.30;49.80;;;;;;4992853;28;20379;-72
2021/09/11 08:16:03;;;;;;;3.70;3.50;;;23.20;50.00;;;;;;4994009;28;20060;-72
2021/09/11 08:18:30;;;;;;;4.10;3.75;;;23.00;50.50;;;;;;4994048;28;20054;-73
2021/09/11 08:20:58;;;;;;;4.53;3.97;;;22.80;51.70;;;;;;4993937;28;20041;-72
2021/09/11 08:23:26;;;;;;;4.82;4.43;;;22.60;51.90;;;;;;4994014;28;20029;-73
2021/09/11 08:25:53;;;;;;;3.75;3.53;;;22.40;52.80;;;;;;4993759;28;20027;-73
2021/09/11 08:28:21;;;;;;;4.50;4.20;;;22.30;53.50;;;;;;4993893;28;20093;-72
2021/09/11 08:30:48;;;;;;;4.53;4.13;;;22.20;53.70;;;;;;4993841;28;20019;-72
2021/09/11 08:33:19;;;;;;;4.50;4.10;;;22.10;54.20;;;;;;4993266;28;20440;-72
2021/09/11 08:35:46;;;;;;;;;;;21.90;54.40;;;;;;4993277;28;20022;-74
2021/09/11 08:38:13;;;;;;;4.63;4.25;;;21.80;55.40;;;;;;4992485;28;20325;-71
2021/09/11 08:40:42;;;;;;;4.45;4.07;;;21.70;56.10;;;;;;4992631;28;20027;-74
2021/09/11 08:43:09;;;;;;;4.50;4.10;;;21.60;56.20;;;;;;4993455;28;20542;-72
2021/09/11 08:45:36;;;;;;;4.53;4.22;;;21.50;56.70;;;;;;4992586;28;20026;-71
2021/09/11 08:48:04;;;;;;;5.20;4.70;;;21.40;57.00;;;;;;4993628;28;20077;-72
2021/09/11 08:50:31;;;;;;;4.75;4.35;;;21.40;58.30;;;;;;4993663;28;20080;-72
2021/09/11 08:52:59;;;;;;;5.20;4.70;;;21.30;58.20;;;;;;4993521;28;20045;-73
2021/09/11 08:55:26;;;;;;;4.78;4.32;;;21.20;57.80;;;;;;4992265;28;20018;-70
2021/09/11 08:57:58;;;;;;;4.07;3.70;;;21.20;58.20;;;;;;4993809;28;20088;-70
2021/09/11 09:00:47;;;;;;;4.43;3.50;;;21.30;57.90;;;;;;4993513;28;20033;-70
2021/09/11 09:03:34;;;;;;;4.00;3.70;;;21.20;57.80;;;;;;4993350;28;20054;-72
2021/09/11 09:06:21;;;;;;;4.47;4.07;;;21.30;58.20;;;;;;4992151;28;20030;-70
2021/09/11 09:08:54;;;;;;;4.43;4.13;;;21.20;58.50;;;;;;4993249;28;20046;-71
2021/09/11 09:11:25;;;;;;;4.70;4.20;;;21.10;58.50;;;;;;4991808;28;20475;-70
2021/09/11 09:14:01;;;;;;;4.10;3.80;;;21.10;58.60;;;;;;4993284;28;20084;-70
2021/09/11 09:16:34;;;;;;;4.22;3.83;;;21.00;58.30;;;;;;4992075;28;20022;-70
2021/09/11 09:19:05;;;;;;;4.00;3.70;;;21.00;58.30;;;;;;4993597;28;20030;-71
2021/09/11 09:21:33;;;;;;;13.27;12.25;;;21.10;58.50;;;;;;4993482;28;20113;-71
2021/09/11 09:24:04;;;;;;;6.43;5.93;;;21.10;58.50;;;;;;4992070;28;20026;-71
2021/09/11 09:26:49;;;;;;;6.80;6.25;;;21.10;58.50;;;;;;4993388;28;20118;-72
2021/09/11 09:29:17;;;;;;;4.50;4.10;;;21.10;59.00;;;;;;4992964;28;20030;-72
2021/09/11 09:31:46;;;;;;;3.95;3.70;;;21.10;59.10;;;;;;4991862;28;20027;-73
2021/09/11 09:34:32;;;;;;;3.80;3.60;;;21.10;58.50;;;;;;4993416;28;20018;-71
2021/09/11 09:37:04;;;;;;;4.20;3.90;;;21.00;58.90;;;;;;4991988;28;20030;-71
2021/09/11 09:39:43;;;;;;;4.68;4.38;;;21.10;58.80;;;;;;4992880;28;20101;-73
2021/09/11 09:42:13;;;;;;;4.43;4.03;;;21.00;59.00;;;;;;4991874;28;20027;-72
2021/09/11 09:44:49;;;;;;;5.22;4.70;;;20.90;59.70;;;;;;4993190;28;20023;-73
2021/09/11 09:47:24;;;;;;;5.13;4.70;;;21.20;58.60;;;;;;4996521;28;20050;-72
2021/09/11 09:50:11;;;;;;;4.78;4.47;;;21.30;58.50;;;;;;4995429;28;20022;-75
2021/09/11 09:52:40;;;;;;;5.20;4.70;;;21.40;57.90;;;;;;4996606;28;20081;-74
2021/09/11 09:55:08;;;;;;;7.18;4.88;;;21.20;59.20;;;;;;4995327;28;20034;-72
2021/09/11 09:57:41;;;;;;;5.60;5.07;;;21.00;61.60;;;;;;4995302;28;20117;-73
2021/09/11 10:00:09;;;;;;;5.47;5.03;;;20.70;62.80;;;;;;4995078;28;20061;-74
2021/09/11 10:02:37;;;;;;;7.22;6.57;;;20.30;63.30;;;;;;4996121;28;20148;-73
2021/09/11 10:05:06;;;;;;;6.78;6.05;;;20.10;63.60;;;;;;4996394;28;20104;-73
2021/09/11 10:07:35;;;;;;;7.25;6.65;;;19.90;65.70;;;;;;4996273;28;20023;-72
2021/09/11 10:10:02;;;;;;;8.63;7.43;;;19.70;65.60;;;;;;4995915;28;20053;-72
2021/09/11 10:12:42;;;;;;;8.88;7.88;;;19.60;65.40;;;;;;4994694;28;20065;-72
2021/09/11 10:15:27;;;;;;;6.40;5.80;;;19.50;67.00;;;;;;4996062;28;20029;-73
2021/09/11 10:17:55;;;;;;;5.50;5.00;;;19.30;65.70;;;;;;4994848;28;20471;-73
2021/09/11 10:20:24;;;;;;;4.82;4.43;;;19.50;63.60;;;;;;4994795;28;20029;-73
2021/09/11 10:23:06;;;;;;;5.07;4.57;;;19.60;62.30;;;;;;4994795;28;20141;-73
2021/09/11 10:25:45;;;;;;;4.72;4.32;;;19.60;63.60;;;;;;4995880;28;20045;-74
2021/09/11 10:28:18;;;;;;;5.03;4.53;;;19.70;63.20;;;;;;4996023;28;20112;-74
2021/09/11 10:31:05;;;;;;;5.95;5.45;;;19.50;64.40;;;;;;4995585;28;20022;-73
2021/09/11 10:33:49;;;;;;;5.30;4.82;;;19.50;63.00;;;;;;4994680;28;20026;-72
2021/09/11 10:36:42;;;;;;;5.18;4.78;;;19.60;63.00;;;;;;4995609;28;20033;-73
2021/09/11 10:39:10;;;;;;;5.43;4.93;;;19.70;62.10;;;;;;4994081;28;20410;-72
2021/09/11 10:41:37;;;;;;;4.93;4.47;;;20.00;61.70;;;;;;4995666;28;20061;-74
2021/09/11 10:44:07;;;;;;;4.97;4.57;;;20.00;62.10;;;;;;4994344;28;20033;-72
2021/09/11 10:46:54;;;;;;;4.93;4.35;;;20.00;61.70;;;;;;4995550;28;20498;-73
2021/09/11 10:49:29;;;;;;;4.63;4.25;;;19.90;61.60;;;;;;4995661;28;20041;-73
2021/09/11 10:52:10;;;;;;;4.68;4.30;;;19.90;61.80;;;;;;4994332;28;20386;-74
2021/09/11 10:54:45;;;;;;;5.88;4.63;;;19.90;61.20;;;;;;4995778;28;20022;-72
2021/09/11 10:57:14;;;;;;;4.53;4.15;;;20.00;61.30;;;;;;4994794;28;20467;-74
2021/09/11 10:59:46;;;;;;;4.47;3.97;;;20.00;61.60;;;;;;4995402;28;20519;-73
2021/09/11 11:02:31;;;;;;;4.30;4.00;;;19.80;63.30;;;;;;4995818;28;20034;-73
2021/09/11 11:05:12;;;;;;;4.05;3.75;;;19.60;62.90;;;;;;4995457;28;20029;-73
2021/09/11 11:07:46;;;;;;;4.20;3.80;;;19.60;62.30;;;;;;4994049;28;20030;-73
2021/09/11 11:10:21;;;;;;;4.03;3.72;;;19.70;62.30;;;;;;4993984;28;20042;-74
2021/09/11 11:12:51;;;;;;;4.50;4.10;;;19.50;64.60;;;;;;4993856;28;20026;-73
2021/09/11 11:15:25;;;;;;;4.57;4.20;;;19.20;65.20;;;;;;4994885;28;20498;-72
2021/09/11 11:17:53;;;;;;;4.45;4.18;;;19.10;64.10;;;;;;4993908;28;20029;-73
2021/09/11 11:20:27;;;;;;;4.70;4.30;;;19.00;65.10;;;;;;4993869;28;20025;-73
2021/09/11 11:22:58;;;;;;;4.88;4.47;;;18.80;65.80;;;;;;4994894;28;20351;-73
2021/09/11 11:25:35;;;;;;;5.00;4.60;;;18.70;65.90;;;;;;4995070;28;20110;-73
2021/09/11 11:28:03;;;;;;;6.68;6.10;;;18.60;67.50;;;;;;4993531;28;20542;-73
2021/09/11 11:30:31;;;;;;;5.00;4.50;;;18.40;68.70;;;;;;4993543;28;20567;-73
2021/09/11 11:33:04;;;;;;;4.78;4.38;;;18.20;67.30;;;;;;4994794;28;20102;-74
2021/09/11 11:35:32;;;;;;;5.03;4.68;;;18.20;67.00;;;;;;4993601;28;20025;-73
2021/09/11 11:37:59;;;;;;;4.75;4.45;;;18.20;68.20;;;;;;4993575;28;20018;-73
2021/09/11 11:40:28;;;;;;;4.82;4.50;;;18.20;67.10;;;;;;4994482;28;20024;-74
2021/09/11 11:43:01;;;;;;;6.40;5.65;;;18.20;66.80;;;;;;4994543;28;20022;-72
2021/09/11 11:45:28;;;;;;;6.03;5.40;;;18.10;72.70;;;;;;4994796;28;20023;-73
2021/09/11 11:48:05;;;;;;;6.43;5.93;;;17.70;76.00;;;;;;4993086;28;20054;-72
2021/09/11 11:50:47;;;;;;;7.00;6.35;;;17.40;79.90;;;;;;4994312;28;20033;-72
2021/09/11 11:53:19;;;;;;;6.57;5.97;;;17.10;83.40;;;;;;4994557;28;20097;-72
2021/09/11 11:55:52;;;;;;;6.45;5.85;;;16.90;84.80;;;;;;4994591;28;20057;-73
2021/09/11 11:58:27;;;;;;;6.00;5.50;;;16.80;85.80;;;;;;4993183;28;20026;-73
2021/09/11 12:01:01;;;;;;;6.57;6.07;;;16.80;85.70;;;;;;4994239;28;20553;-74
2021/09/11 12:03:35;;;;;;;5.68;5.18;;;16.70;86.30;;;;;;4994309;28;20537;-72
2021/09/11 12:06:04;;;;;;;5.82;5.32;;;16.60;86.50;;;;;;4994358;28;20022;-72
2021/09/11 12:08:39;;;;;;;5.60;5.15;;;16.60;84.90;;;;;;4993093;28;20176;-72
2021/09/11 12:11:16;;;;;;;5.38;4.97;;;16.70;81.70;;;;;;4994161;28;20442;-73
2021/09/11 12:13:45;;;;;;;4.75;4.45;;;16.70;80.30;;;;;;4994105;28;20101;-72
2021/09/11 12:16:14;;;;;;;5.15;4.82;;;16.70;80.30;;;;;;4994023;28;20038;-73
2021/09/11 12:18:42;;;;;;;5.32;4.93;;;16.70;80.00;;;;;;4992675;28;20050;-73
2021/09/11 12:21:16;;;;;;;4.75;4.45;;;16.70;78.90;;;;;;4994119;28;20023;-73
2021/09/11 12:23:53;;;;;;;5.53;5.05;;;16.70;77.50;;;;;;4994121;28;20479;-73
2021/09/11 12:26:38;;;;;;;4.50;4.20;;;16.70;77.30;;;;;;4994145;28;20031;-73
2021/09/11 12:29:10;;;;;;;4.40;4.10;;;16.80;74.50;;;;;;4994030;28;20120;-73
2021/09/11 12:31:39;;;;;;;4.43;4.13;;;16.90;73.90;;;;;;4992673;28;20037;-72
2021/09/11 12:34:18;;;;;;;4.82;4.40;;;17.00;72.20;;;;;;4992780;28;20026;-72
2021/09/11 12:36:47;;;;;;;4.22;3.92;;;17.10;71.50;;;;;;4993953;28;20172;-74
2021/09/11 12:39:31;;;;;;;5.30;5.00;;;17.10;71.30;;;;;;4992572;28;20022;-73
2021/09/11 12:42:03;;;;;;;5.65;5.07;;;17.10;70.90;;;;;;4993739;28;20053;-74
2021/09/11 12:44:33;;;;;;;5.10;4.68;;;17.20;70.80;;;;;;4992464;28;20038;-73
2021/09/11 12:47:07;;;;;;;6.47;5.07;;;17.20;70.50;;;;;;4992470;28;20045;-73
2021/09/11 12:49:38;;;;;;;5.20;4.88;;;17.30;70.70;;;;;;4993718;28;20037;-74
2021/09/11 12:52:07;;;;;;;5.80;5.40;;;17.40;69.90;;;;;;4992500;28;20189;-72
2021/09/11 12:54:35;;;;;;;4.82;4.53;;;17.40;70.00;;;;;;4993623;28;20023;-72
2021/09/11 12:57:03;;;;;;;4.97;4.55;;;17.40;69.60;;;;;;4993648;28;20021;-72
2021/09/11 12:59:31;;;;;;;4.82;4.50;;;17.50;69.40;;;;;;4992060;28;20598;-73